createdAt,value
2022-08-01T00:02:03.855Z,85971.41
2022-08-01T00:04:31.815Z,85962.41
2022-08-01T00:06:59.356Z,85969.47
2022-08-01T00:09:27.025Z,85939.41
2022-08-01T00:11:56.274Z,85926.31
2022-08-01T00:14:32.608Z,85960.66
2022-08-01T00:17:07.067Z,85950.63
2022-08-01T00:19:36.112Z,85940.75
2022-08-01T00:22:04.695Z,85928.06
2022-08-01T00:24:32.135Z,85950.09
2022-08-01T00:26:59.408Z,85952.91
2022-08-01T00:30:10.064Z,85951.22
2022-08-01T00:32:14.948Z,85953.88
2022-08-01T00:34:42.861Z,85930.31
2022-08-01T00:37:10.643Z,85952.16
2022-08-01T00:39:44.051Z,85931.75
2022-08-01T00:42:13.410Z,85938.59
2022-08-01T00:44:41.743Z,85940.16
2022-08-01T00:47:09.460Z,85950.72
2022-08-01T00:49:37.874Z,85952.38
2022-08-01T00:52:07.207Z,85940.13
2022-08-01T00:54:35.861Z,85947.34
2022-08-01T00:57:04.441Z,85934.09
2022-08-01T00:59:32.414Z,85944.69
2022-08-01T01:01:59.741Z,85947.56
2022-08-01T01:04:29.417Z,85917.44
2022-08-01T01:07:01.664Z,85949.53
2022-08-01T01:09:38.335Z,85958.47
2022-08-01T01:12:41.699Z,85938.03
2022-08-01T01:15:47.067Z,85953.09
2022-08-01T01:18:22.035Z,85930.16
2022-08-01T01:24:37.867Z,85949.69
2022-08-01T01:27:30.989Z,85946.13
2022-08-01T01:30:02.058Z,85939.75
2022-08-01T01:32:59.504Z,85908.59
2022-08-01T01:35:32.226Z,85938.78
2022-08-01T01:38:08.932Z,85937.44
2022-08-01T01:40:39.345Z,85940.16
2022-08-01T01:43:11.694Z,85936.69
2022-08-01T01:45:41.371Z,85916.66
2022-08-01T01:48:11.293Z,85918.34
2022-08-01T01:50:39.852Z,85917.28
2022-08-01T01:53:35.468Z,85920.09
2022-08-01T01:56:04.980Z,85935.38
2022-08-01T01:58:35.628Z,85920.03
2022-08-01T02:01:04.953Z,85912.84
2022-08-01T02:04:09.165Z,85905.06
2022-08-01T02:06:43.514Z,85934.56
2022-08-01T02:09:12.835Z,85933.19
2022-08-01T02:12:07.671Z,85915.56
2022-08-01T02:14:30.548Z,85927.81
2022-08-01T02:16:59.459Z,85927.97
2022-08-01T02:19:27.165Z,85929.56
2022-08-01T02:22:00.929Z,85934.53
2022-08-01T02:24:39.016Z,85915.75
2022-08-01T02:27:11.294Z,85924.16
2022-08-01T02:29:44.457Z,85898.31
2022-08-01T02:32:18.510Z,85910.81
2022-08-01T02:34:51.274Z,85891.59
2022-08-01T02:37:22.244Z,85917.91
2022-08-01T02:39:53.904Z,85922.97
2022-08-01T02:42:25.188Z,85904.72
2022-08-01T02:44:55.142Z,85880.03
2022-08-01T02:47:24.866Z,85915.06
2022-08-01T02:49:54.942Z,85913.44
2022-08-01T02:52:24.622Z,85897.81
2022-08-01T02:54:56.622Z,85914.03
2022-08-01T02:57:30.158Z,85914.03
2022-08-01T03:00:14.340Z,85912.66
2022-08-01T03:03:10.660Z,85914.09
2022-08-01T03:05:44.503Z,85915.34
2022-08-01T03:08:15.190Z,85910.78
2022-08-01T03:10:45.966Z,85897.88
2022-08-01T03:13:15.998Z,85886.44
2022-08-01T03:15:44.885Z,85916.44
2022-08-01T03:18:14.806Z,85891.56
2022-08-01T03:20:44.468Z,85915.97
2022-08-01T03:23:14.023Z,85926.25
2022-08-01T03:25:46.624Z,85888.59
2022-08-01T03:28:20.969Z,85918.59
2022-08-01T03:30:51.564Z,85924.34
2022-08-01T03:33:18.580Z,85888.88
2022-08-01T03:35:49.801Z,85880.69
2022-08-01T03:38:21.365Z,85893.03
2022-08-01T03:41:01.121Z,85923.00
2022-08-01T03:43:39.721Z,85920.94
2022-08-01T03:46:11.438Z,85913.84
2022-08-01T03:48:47.079Z,85892.84
2022-08-01T03:51:16.491Z,85918.81
2022-08-01T03:53:47.270Z,85907.91
2022-08-01T03:56:41.497Z,85888.94
2022-08-01T03:59:10.847Z,85919.22
2022-08-01T04:01:38.983Z,85863.34
2022-08-01T04:04:07.685Z,85868.66
2022-08-01T04:06:39.138Z,85879.72
2022-08-01T04:09:13.287Z,85911.59
2022-08-01T04:11:45.195Z,85932.00
2022-08-01T04:14:12.394Z,85883.31
2022-08-01T04:16:39.355Z,85933.00
2022-08-01T04:19:10.152Z,85934.84
2022-08-01T04:21:40.177Z,85928.56
2022-08-01T04:24:19.762Z,85936.34
2022-08-01T04:26:49.070Z,85932.91
2022-08-01T04:29:18.909Z,85923.91
2022-08-01T04:31:48.950Z,85938.75
2022-08-01T04:34:21.527Z,85929.56
2022-08-01T04:37:15.949Z,85933.75
2022-08-01T04:39:50.554Z,85921.63
2022-08-01T04:42:26.065Z,85921.91
2022-08-01T04:45:01.053Z,85913.38
2022-08-01T04:47:31.811Z,85935.41
2022-08-01T04:50:24.596Z,85931.78
2022-08-01T04:52:53.107Z,85921.84
2022-08-01T04:55:47.304Z,85931.66
2022-08-01T04:58:18.554Z,85935.03
2022-08-01T05:00:46.966Z,85926.00
2022-08-01T05:03:39.841Z,85936.06
2022-08-01T05:06:32.594Z,85932.88
2022-08-01T05:09:00.370Z,85921.56
2022-08-01T05:11:27.693Z,85928.25
2022-08-01T05:13:55.297Z,85922.19
2022-08-01T05:16:22.620Z,85896.47
2022-08-01T05:19:15.077Z,85918.31
2022-08-01T05:21:42.559Z,85917.75
2022-08-01T05:24:09.931Z,85925.41
2022-08-01T05:26:37.555Z,85897.56
2022-08-01T05:29:05.040Z,85911.41
2022-08-01T05:31:35.350Z,85903.94
2022-08-01T05:34:03.554Z,85904.69
2022-08-01T05:36:31.410Z,85906.88
2022-08-01T05:38:58.684Z,85900.22
2022-08-01T05:41:26.468Z,85890.66
2022-08-01T05:43:53.526Z,85875.88
2022-08-01T05:46:47.564Z,85900.19
2022-08-01T05:49:41.449Z,85907.16
2022-08-01T05:52:09.592Z,85892.00
2022-08-01T05:55:01.702Z,85874.53
2022-08-01T05:57:29.498Z,85900.69
2022-08-01T05:59:56.858Z,85916.38
2022-08-01T06:02:24.895Z,85911.25
2022-08-01T06:04:52.602Z,85911.03
2022-08-01T06:07:20.499Z,85918.28
2022-08-01T06:09:48.344Z,85905.88
2022-08-01T06:12:16.083Z,85890.75
2022-08-01T06:14:43.386Z,85895.97
2022-08-01T06:17:10.711Z,85903.78
2022-08-01T06:19:38.313Z,85903.53
2022-08-01T06:22:06.100Z,85913.19
2022-08-01T06:24:33.603Z,85882.91
2022-08-01T06:27:05.780Z,85909.50
2022-08-01T06:29:50.314Z,85884.28
2022-08-01T06:32:27.079Z,85890.47
2022-08-01T06:34:56.582Z,85902.53
2022-08-01T06:37:24.951Z,85905.47
2022-08-01T06:39:52.253Z,85893.59
2022-08-01T06:42:19.668Z,85897.38
2022-08-01T06:44:48.415Z,85877.56
2022-08-01T06:47:15.972Z,85867.34
2022-08-01T06:49:43.800Z,85873.22
2022-08-01T06:52:11.172Z,85889.31
2022-08-01T06:55:03.666Z,85901.25
2022-08-01T06:57:55.468Z,85885.50
2022-08-01T07:00:24.880Z,85896.00
2022-08-01T07:02:57.469Z,85883.75
2022-08-01T07:05:25.771Z,85859.63
2022-08-01T07:08:18.249Z,85903.63
2022-08-01T07:10:46.081Z,85891.16
2022-08-01T07:13:13.542Z,85910.03
2022-08-01T07:15:41.019Z,85896.25
2022-08-01T07:18:34.238Z,85887.56
2022-08-01T07:21:01.820Z,85884.63
2022-08-01T07:23:57.986Z,85900.34
2022-08-01T07:26:53.335Z,85892.44
2022-08-01T07:29:26.352Z,85893.38
2022-08-01T07:31:56.850Z,85853.25
2022-08-01T07:34:25.158Z,85883.50
2022-08-01T07:37:17.653Z,85897.53
2022-08-01T07:40:06.359Z,85895.72
2022-08-01T07:42:34.002Z,85868.28
2022-08-01T07:45:02.070Z,85869.38
2022-08-01T07:47:29.764Z,85865.44
2022-08-01T07:52:53.050Z,85878.66
2022-08-01T07:55:45.510Z,85888.59
2022-08-01T07:58:40.234Z,85852.34
2022-08-01T08:01:33.673Z,85886.03
2022-08-01T08:06:54.839Z,85888.22
2022-08-01T08:09:22.813Z,85889.97
2022-08-01T08:11:50.407Z,85897.84
2022-08-01T08:14:23.499Z,85872.19
2022-08-01T08:17:00.371Z,85896.84
2022-08-01T08:19:37.275Z,85881.50
2022-08-01T08:22:08.456Z,85857.16
2022-08-01T08:24:45.679Z,85861.53
2022-08-01T08:27:15.239Z,85867.38
2022-08-01T08:29:43.097Z,85859.13
2022-08-01T08:32:11.144Z,85871.56
2022-08-01T08:34:38.888Z,85882.63
2022-08-01T08:37:06.675Z,85874.06
2022-08-01T08:39:42.117Z,85853.72
2022-08-01T08:42:12.251Z,85868.25
2022-08-01T08:44:43.876Z,85872.44
2022-08-01T08:47:19.868Z,85871.63
2022-08-01T08:49:49.596Z,85826.91
2022-08-01T08:52:21.492Z,85852.09
2022-08-01T08:55:14.913Z,85887.03
2022-08-01T08:58:08.335Z,85863.13
2022-08-01T09:00:37.048Z,85877.03
2022-08-01T09:03:54.250Z,85893.31
2022-08-01T09:06:24.677Z,85883.16
2022-08-01T09:08:55.696Z,85874.41
2022-08-01T09:11:23.887Z,85867.00
2022-08-01T09:14:12.051Z,85886.41
2022-08-01T09:16:48.612Z,85875.38
2022-08-01T09:19:39.543Z,85880.34
2022-08-01T09:22:11.693Z,85875.63
2022-08-01T09:24:41.625Z,85875.91
2022-08-01T09:27:22.092Z,85874.09
2022-08-01T09:30:01.361Z,85869.34
2022-08-01T09:32:36.439Z,85845.09
2022-08-01T09:35:43.684Z,85859.00
2022-08-01T09:38:20.778Z,85874.78
2022-08-01T09:41:20.731Z,85872.31
2022-08-01T09:43:51.877Z,85855.59
2022-08-01T09:46:21.611Z,85842.16
2022-08-01T09:49:07.475Z,85869.13
2022-08-01T09:51:59.506Z,85870.69
2022-08-01T09:54:32.063Z,85864.09
2022-08-01T09:57:29.290Z,85870.41
2022-08-01T10:00:01.830Z,85850.72
2022-08-01T10:02:45.860Z,85872.63
2022-08-01T10:05:20.861Z,85870.75
2022-08-01T10:08:01.492Z,85873.56
2022-08-01T10:10:31.393Z,85871.75
2022-08-01T10:13:23.703Z,85872.16
2022-08-01T10:15:52.015Z,85863.47
2022-08-01T10:18:25.326Z,85865.00
2022-08-01T10:20:56.591Z,85873.06
2022-08-01T10:23:39.901Z,85857.44
2022-08-01T10:26:11.891Z,85876.28
2022-08-01T10:29:04.706Z,85844.66
2022-08-01T10:31:53.301Z,85877.75
2022-08-01T10:34:29.731Z,85864.56
2022-08-01T10:37:00.930Z,85867.41
2022-08-01T10:39:33.048Z,85856.47
2022-08-01T10:42:02.302Z,85863.53
2022-08-01T10:44:32.902Z,85869.34
2022-08-01T10:47:19.431Z,85841.38
2022-08-01T10:50:26.674Z,85843.75
2022-08-01T10:53:42.626Z,85865.81
2022-08-01T10:56:18.361Z,85866.63
2022-08-01T10:58:49.116Z,85855.94
2022-08-01T11:01:16.897Z,85863.56
2022-08-01T11:04:07.480Z,85864.97
2022-08-01T11:06:43.436Z,85855.94
2022-08-01T11:09:51.032Z,85863.53
2022-08-01T11:12:23.421Z,85865.16
2022-08-01T11:15:00.696Z,85868.66
2022-08-01T11:17:45.376Z,85837.75
2022-08-01T11:26:13.310Z,85843.50
2022-08-01T11:29:20.505Z,85855.22
2022-08-01T11:31:50.032Z,85858.19
2022-08-01T11:34:17.702Z,85857.41
2022-08-01T11:37:09.866Z,85849.16
2022-08-01T11:39:38.855Z,85855.22
2022-08-01T11:42:21.235Z,85822.56
2022-08-01T11:47:50.208Z,85826.47
2022-08-01T11:50:38.076Z,85828.78
2022-08-01T11:56:03.618Z,85822.56
2022-08-01T11:58:31.431Z,85832.16
2022-08-01T12:00:59.953Z,85816.19
2022-08-01T12:03:54.052Z,85837.63
2022-08-01T12:06:30.437Z,85829.81
2022-08-01T12:09:22.712Z,85825.06
2022-08-01T12:11:50.631Z,85835.06
2022-08-01T12:14:21.125Z,85835.97
2022-08-01T12:16:55.444Z,85840.81
2022-08-01T12:19:26.254Z,85830.97
2022-08-01T12:22:29.795Z,85842.06
2022-08-01T12:25:21.946Z,85825.59
2022-08-01T12:27:55.713Z,85816.69
2022-08-01T12:30:32.086Z,85836.44
2022-08-01T12:32:59.726Z,85823.72
2022-08-01T12:35:29.369Z,85805.63
2022-08-01T12:38:06.144Z,85831.53
2022-08-01T12:40:38.227Z,85828.97
2022-08-01T12:43:35.032Z,85830.75
2022-08-01T12:46:03.394Z,85811.44
2022-08-01T12:48:32.378Z,85826.53
2022-08-01T12:51:02.528Z,85800.06
2022-08-01T12:53:40.566Z,85812.03
2022-08-01T12:56:12.117Z,85804.59
2022-08-01T12:58:39.984Z,85832.56
2022-08-01T13:01:14.668Z,85829.66
2022-08-01T13:03:43.745Z,85815.34
2022-08-01T13:06:21.283Z,85815.06
2022-08-01T13:08:49.106Z,85826.84
2022-08-01T13:11:18.468Z,85821.84
2022-08-01T13:13:52.969Z,85826.69
2022-08-01T13:16:27.857Z,85834.81
2022-08-01T13:19:03.372Z,85823.84
2022-08-01T13:21:56.233Z,85824.94
2022-08-01T13:24:30.604Z,85823.84
2022-08-01T13:27:26.452Z,85822.31
2022-08-01T13:29:58.750Z,85827.03
2022-08-01T13:32:32.311Z,85809.16
2022-08-01T13:37:38.557Z,85817.34
2022-08-01T13:43:04.462Z,85816.63
2022-08-01T13:45:32.188Z,85802.63
2022-08-01T13:48:25.105Z,85828.44
2022-08-01T13:51:02.019Z,85823.53
2022-08-01T13:54:01.666Z,85827.94
2022-08-01T13:56:30.217Z,85795.97
2022-08-01T13:58:58.172Z,85817.09
2022-08-01T14:01:29.996Z,85821.34
2022-08-01T14:04:27.192Z,85826.50
2022-08-01T14:06:55.609Z,85795.47
2022-08-01T14:09:24.957Z,85783.41
2022-08-01T14:12:00.692Z,85814.75
2022-08-01T14:14:53.475Z,85830.84
2022-08-01T14:17:21.291Z,85822.59
2022-08-01T14:19:49.476Z,85817.78
2022-08-01T14:22:17.701Z,85813.84
2022-08-01T14:25:09.994Z,85825.06
2022-08-01T14:27:43.129Z,85830.09
2022-08-01T14:30:12.834Z,85811.63
2022-08-01T14:32:40.083Z,85837.00
2022-08-01T14:35:08.578Z,85837.72
2022-08-01T14:37:38.709Z,85828.44
2022-08-01T14:40:34.003Z,85841.38
2022-08-01T14:43:30.733Z,85837.75
2022-08-01T14:46:02.946Z,85833.19
2022-08-01T14:48:31.353Z,85829.03
2022-08-01T14:51:04.218Z,85819.41
2022-08-01T14:53:35.667Z,85833.31
2022-08-01T14:56:05.461Z,85846.44
2022-08-01T14:58:33.212Z,85831.59
2022-08-01T15:01:00.708Z,85835.06
2022-08-01T15:03:33.191Z,85814.56
2022-08-01T15:06:25.935Z,85841.53
2022-08-01T15:08:53.902Z,85851.28
2022-08-01T15:11:21.368Z,85813.75
2022-08-01T15:14:09.041Z,85857.88
2022-08-01T15:16:37.310Z,85843.59
2022-08-01T15:19:05.647Z,85851.16
2022-08-01T15:21:58.431Z,85852.38
2022-08-01T15:24:29.067Z,85849.66
2022-08-01T15:27:22.412Z,85857.09
2022-08-01T15:29:51.338Z,85828.75
2022-08-01T15:32:19.354Z,85854.84
2022-08-01T15:34:47.008Z,85847.25
2022-08-01T15:37:16.377Z,85844.41
2022-08-01T15:39:44.126Z,85846.44
2022-08-01T15:42:13.677Z,85836.03
2022-08-01T15:44:47.882Z,85833.50
2022-08-01T15:47:15.175Z,85855.50
2022-08-01T15:49:43.386Z,85853.88
2022-08-01T15:52:21.454Z,85839.19
2022-08-01T15:54:50.892Z,85866.19
2022-08-01T15:57:18.398Z,85827.25
2022-08-01T15:59:46.366Z,85859.91
2022-08-01T16:02:14.665Z,85850.66
2022-08-01T16:05:08.015Z,85864.28
2022-08-01T16:07:35.611Z,85869.66
2022-08-01T16:10:29.039Z,85861.69
2022-08-01T16:13:20.907Z,85868.78
2022-08-01T16:16:14.262Z,85851.88
2022-08-01T16:18:42.698Z,85847.06
2022-08-01T16:22:00.610Z,85878.94
2022-08-01T16:24:31.325Z,85876.78
2022-08-01T16:27:27.157Z,85881.34
2022-08-01T16:29:55.379Z,85890.53
2022-08-01T16:32:28.006Z,85889.53
2022-08-01T16:35:10.146Z,85857.22
2022-08-01T16:37:42.144Z,85886.81
2022-08-01T16:40:47.195Z,85884.31
2022-08-01T16:43:16.803Z,85872.88
2022-08-01T16:45:45.637Z,85882.34
2022-08-01T16:48:16.388Z,85885.53
2022-08-01T16:50:45.427Z,85882.84
2022-08-01T16:53:20.702Z,85888.94
2022-08-01T16:55:50.082Z,85883.88
2022-08-01T16:58:27.260Z,85894.97
2022-08-01T17:02:01.214Z,85892.13
2022-08-01T17:04:11.788Z,85878.59
2022-08-01T17:06:39.760Z,85864.16
2022-08-01T17:09:07.490Z,85896.81
2022-08-01T17:11:59.660Z,85905.50
2022-08-01T17:14:28.848Z,85879.50
2022-08-01T17:17:01.162Z,85872.75
2022-08-01T17:19:32.970Z,85907.19
2022-08-01T17:22:01.564Z,85909.47
2022-08-01T17:24:28.947Z,85916.56
2022-08-01T17:27:22.936Z,85907.78
2022-08-01T17:29:50.340Z,85895.59
2022-08-01T17:32:18.707Z,85913.66
2022-08-01T17:34:46.105Z,85886.75
2022-08-01T17:37:13.542Z,85898.06
2022-08-01T17:39:42.091Z,85865.72
2022-08-01T17:42:12.636Z,85918.84
2022-08-01T17:44:41.736Z,85907.06
2022-08-01T17:47:29.020Z,85933.50
2022-08-01T17:50:29.251Z,85925.25
2022-08-01T17:53:22.349Z,85909.06
2022-08-01T17:55:53.825Z,85936.56
2022-08-01T17:58:50.019Z,85932.31
2022-08-01T18:01:19.674Z,85946.72
2022-08-01T18:03:49.198Z,85946.31
2022-08-01T18:06:41.509Z,85959.84
2022-08-01T18:09:26.639Z,85936.69
2022-08-01T18:12:19.006Z,85969.81
2022-08-01T18:14:47.318Z,85954.88
2022-08-01T18:17:15.143Z,85947.31
2022-08-01T18:19:46.864Z,85960.25
2022-08-01T18:22:31.721Z,85951.69
2022-08-01T18:25:09.067Z,85952.91
2022-08-01T18:28:16.353Z,85984.84
2022-08-01T18:30:25.530Z,85982.28
2022-08-01T18:32:52.982Z,85978.81
2022-08-01T18:35:20.949Z,85993.13
2022-08-01T18:37:54.500Z,85977.97
2022-08-01T18:40:47.730Z,85994.38
2022-08-01T18:45:43.285Z,85997.63
2022-08-01T18:48:13.360Z,86001.91
2022-08-01T18:50:41.020Z,85962.84
2022-08-01T18:53:34.167Z,86012.66
2022-08-01T18:56:01.773Z,86003.44
2022-08-01T18:58:29.282Z,85999.41
2022-08-01T19:00:58.148Z,85995.72
2022-08-01T19:03:25.544Z,86008.72
2022-08-01T19:05:53.624Z,85994.75
2022-08-01T19:08:20.979Z,85994.84
2022-08-01T19:10:49.565Z,86018.06
2022-08-01T19:13:17.127Z,85994.84
2022-08-01T19:15:46.242Z,86022.47
2022-08-01T19:18:38.365Z,86003.31
2022-08-01T19:24:23.937Z,86015.72
2022-08-01T19:26:57.230Z,86012.31
2022-08-01T19:29:56.191Z,86000.78
2022-08-01T19:32:30.498Z,86030.81
2022-08-01T19:35:05.221Z,86003.25
2022-08-01T19:37:33.697Z,86020.13
2022-08-01T19:40:02.453Z,86004.09
2022-08-01T19:42:30.740Z,86022.09
2022-08-01T19:44:59.110Z,86020.25
2022-08-01T19:47:26.609Z,86030.72
2022-08-01T19:53:30.649Z,86028.22
2022-08-01T19:56:00.706Z,86038.50
2022-08-01T19:58:30.967Z,86035.00
2022-08-01T20:00:58.040Z,86026.09
2022-08-01T20:03:28.353Z,86032.88
2022-08-01T20:05:56.256Z,86011.03
2022-08-01T20:08:25.058Z,86017.25
2022-08-01T20:10:53.573Z,86015.31
2022-08-01T20:13:21.774Z,86031.91
2022-08-01T20:15:51.790Z,86033.38
2022-08-01T20:18:24.081Z,86016.56
2022-08-01T20:20:53.998Z,86040.66
2022-08-01T20:23:27.438Z,86042.13
2022-08-01T20:26:01.030Z,86027.06
2022-08-01T20:28:30.131Z,86020.25
2022-08-01T20:31:05.423Z,85978.59
2022-08-01T20:33:36.156Z,86017.84
2022-08-01T20:36:11.963Z,86031.63
2022-08-01T20:38:41.996Z,86031.94
2022-08-01T20:41:35.459Z,86025.13
2022-08-01T20:44:29.275Z,86004.13
2022-08-01T20:46:59.521Z,86010.25
2022-08-01T20:49:27.289Z,85991.22
2022-08-01T20:51:54.828Z,86025.72
2022-08-01T20:54:23.350Z,86023.84
2022-08-01T20:57:00.965Z,86013.25
2022-08-01T20:59:40.057Z,86017.06
2022-08-01T21:03:15.391Z,86010.25
2022-08-01T21:05:55.954Z,86009.16
2022-08-01T21:08:43.982Z,86003.16
2022-08-01T21:11:21.651Z,85963.63
2022-08-01T21:13:51.307Z,86002.81
2022-08-01T21:16:28.793Z,86017.09
2022-08-01T21:19:18.474Z,86008.97
2022-08-01T21:22:16.451Z,86013.59
2022-08-01T21:24:58.052Z,86008.66
2022-08-01T21:27:33.691Z,86017.38
2022-08-01T21:30:09.941Z,86003.09
2022-08-01T21:32:38.052Z,86008.38
2022-08-01T21:35:15.719Z,86009.91
2022-08-01T21:38:10.817Z,85999.22
2022-08-01T21:40:41.615Z,86010.28
2022-08-01T21:43:12.460Z,85971.03
2022-08-01T21:45:57.983Z,86013.00
2022-08-01T21:48:30.773Z,86010.19
2022-08-01T21:51:02.236Z,86010.47
2022-08-01T21:53:43.541Z,86011.50
2022-08-01T21:56:59.502Z,86008.41
2022-08-01T22:00:06.721Z,85986.16
2022-08-01T22:02:39.213Z,86009.63
2022-08-01T22:05:11.224Z,85992.66
2022-08-01T22:08:18.470Z,86009.34
2022-08-01T22:10:48.103Z,85983.16
2022-08-01T22:13:15.929Z,85990.06
2022-08-01T22:15:44.776Z,85985.88
2022-08-01T22:18:38.448Z,86009.53
2022-08-01T22:24:22.859Z,85985.28
2022-08-01T22:26:53.284Z,85974.25
2022-08-01T22:29:47.082Z,85998.66
2022-08-01T22:32:16.747Z,86001.38
2022-08-01T22:34:44.005Z,85957.25
2022-08-01T22:37:14.748Z,85987.94
2022-08-01T22:39:42.917Z,85974.69
2022-08-01T22:42:10.954Z,85976.06
2022-08-01T22:45:13.572Z,85999.44
2022-08-01T22:47:54.617Z,85997.50
2022-08-01T22:50:36.624Z,86006.53
2022-08-01T22:53:37.081Z,85997.16
2022-08-01T22:56:13.816Z,85989.19
2022-08-01T22:58:42.963Z,85997.34
2022-08-01T23:01:36.129Z,85988.22
2022-08-01T23:04:04.395Z,85994.88
2022-08-01T23:09:57.353Z,85999.72
2022-08-01T23:12:26.633Z,85962.09
2022-08-01T23:14:56.124Z,85960.22
2022-08-01T23:17:26.594Z,85978.53
2022-08-01T23:19:58.550Z,85994.53
2022-08-01T23:22:35.360Z,85982.03
2022-08-01T23:25:06.568Z,85986.34
2022-08-01T23:27:51.434Z,85983.00
2022-08-01T23:30:31.219Z,85974.50
2022-08-01T23:33:00.124Z,85983.78
2022-08-01T23:35:28.082Z,85987.94
2022-08-01T23:38:02.004Z,85958.59
2022-08-01T23:40:34.835Z,85995.94
2022-08-01T23:43:05.565Z,85972.81
2022-08-01T23:46:03.205Z,85957.31
2022-08-01T23:48:30.006Z,85986.56
2022-08-01T23:50:57.276Z,85955.25
2022-08-01T23:53:30.770Z,85980.63
2022-08-01T23:56:04.524Z,85964.28
2022-08-01T23:58:32.876Z,85974.31
